createdAt,value
2023-05-06T00:02:48.342Z,14.34
2023-05-06T00:05:50.665Z,14.35
2023-05-06T00:09:06.263Z,14.35
2023-05-06T00:12:15.390Z,14.35
2023-05-06T00:15:24.250Z,14.27
2023-05-06T00:18:39.218Z,14.27
2023-05-06T00:21:54.242Z,14.22
2023-05-06T00:25:09.449Z,14.18
2023-05-06T00:28:18.228Z,14.18
2023-05-06T00:31:26.762Z,14.20
2023-05-06T00:34:35.313Z,14.19
2023-05-06T00:37:46.874Z,14.27
2023-05-06T00:40:55.280Z,14.21
2023-05-06T00:44:04.304Z,14.28
2023-05-06T00:47:14.253Z,14.26
2023-05-06T00:50:36.235Z,14.27
2023-05-06T00:53:38.927Z,14.18
2023-05-06T00:56:53.237Z,14.28
2023-05-06T01:00:08.259Z,14.26
2023-05-06T01:03:16.312Z,14.25
2023-05-06T01:07:09.252Z,14.17
2023-05-06T01:10:37.102Z,14.22
2023-05-06T01:14:13.259Z,14.18
2023-05-06T01:17:25.322Z,14.12
2023-05-06T01:20:34.431Z,14.11
2023-05-06T01:24:09.222Z,14.09
2023-05-06T01:27:17.819Z,14.05
2023-05-06T01:30:29.263Z,14.02
2023-05-06T01:34:12.249Z,14.01
2023-05-06T01:37:32.257Z,14.00
2023-05-06T01:40:42.342Z,13.90
2023-05-06T01:44:00.234Z,13.87
2023-05-06T01:47:16.251Z,13.75
2023-05-06T01:50:32.595Z,13.82
2023-05-06T01:53:48.261Z,13.61
2023-05-06T01:56:57.232Z,13.72
2023-05-06T02:00:06.688Z,13.71
2023-05-06T02:03:15.473Z,13.58
2023-05-06T02:06:23.831Z,13.55
2023-05-06T02:09:32.245Z,13.51
2023-05-06T02:12:47.335Z,13.45
2023-05-06T02:15:55.820Z,13.42
2023-05-06T02:19:04.257Z,13.47
2023-05-06T02:22:20.236Z,13.53
2023-05-06T02:25:22.760Z,13.50
2023-05-06T02:28:37.262Z,13.63
2023-05-06T02:31:45.313Z,13.57
2023-05-06T02:35:00.262Z,13.65
2023-05-06T02:38:08.310Z,13.61
2023-05-06T02:41:23.254Z,13.57
2023-05-06T02:44:31.249Z,13.59
2023-05-06T02:47:46.280Z,13.60
2023-05-06T02:50:54.538Z,13.51
2023-05-06T02:54:10.329Z,13.51
2023-05-06T02:57:12.284Z,13.40
2023-05-06T03:00:27.268Z,13.33
2023-05-06T03:03:35.260Z,13.28
2023-05-06T03:06:43.830Z,13.31
2023-05-06T03:09:58.286Z,13.32
2023-05-06T03:13:00.402Z,13.23
2023-05-06T03:16:19.301Z,13.33
2023-05-06T03:19:21.186Z,13.38
2023-05-06T03:22:36.276Z,13.30
2023-05-06T03:25:44.963Z,13.33
2023-05-06T03:28:59.226Z,13.33
2023-05-06T03:32:04.302Z,13.37
2023-05-06T03:35:19.251Z,13.35
2023-05-06T03:38:27.834Z,13.31
2023-05-06T03:41:43.294Z,13.32
2023-05-06T03:44:51.871Z,13.36
2023-05-06T03:48:06.309Z,13.31
2023-05-06T03:51:28.274Z,13.30
2023-05-06T03:54:43.239Z,13.32
2023-05-06T03:57:45.077Z,13.36
2023-05-06T04:01:00.261Z,13.32
2023-05-06T04:04:02.217Z,13.32
2023-05-06T04:07:17.266Z,13.30
2023-05-06T04:10:26.039Z,13.33
2023-05-06T04:13:41.296Z,13.42
2023-05-06T04:16:43.294Z,13.47
2023-05-06T04:19:58.315Z,13.57
2023-05-06T04:23:13.270Z,13.65
2023-05-06T04:26:15.099Z,13.69
2023-05-06T04:29:30.268Z,13.73
2023-05-06T04:32:32.181Z,13.80
2023-05-06T04:35:47.340Z,13.84
2023-05-06T04:38:56.288Z,13.84
2023-05-06T04:42:12.343Z,13.91
2023-05-06T04:45:14.327Z,13.95
2023-05-06T04:48:29.275Z,14.02
2023-05-06T04:51:38.243Z,14.09
2023-05-06T04:54:46.833Z,14.16
2023-05-06T04:57:55.301Z,14.23
2023-05-06T05:01:05.275Z,14.28
2023-05-06T05:04:13.280Z,14.31
2023-05-06T05:07:21.833Z,14.34
2023-05-06T05:10:30.244Z,14.40
2023-05-06T05:13:38.895Z,14.47
2023-05-06T05:16:47.324Z,14.45
2023-05-06T05:19:55.945Z,14.51
2023-05-06T05:23:11.265Z,14.49
2023-05-06T05:26:26.288Z,14.70
2023-05-06T05:29:34.297Z,14.78
2023-05-06T05:32:43.402Z,14.81
2023-05-06T05:35:59.269Z,14.80
2023-05-06T05:39:07.839Z,14.83
2023-05-06T05:42:23.311Z,14.87
2023-05-06T05:45:25.231Z,14.92
2023-05-06T05:48:40.267Z,14.96
2023-05-06T05:51:55.553Z,15.03
2023-05-06T05:55:11.461Z,15.03
2023-05-06T05:58:26.506Z,15.14
2023-05-06T06:01:35.274Z,15.26
2023-05-06T06:04:44.103Z,15.39
2023-05-06T06:07:52.289Z,15.52
2023-05-06T06:11:07.276Z,15.65
2023-05-06T06:14:15.881Z,15.69
2023-05-06T06:17:24.327Z,15.90
2023-05-06T06:20:32.854Z,16.14
2023-05-06T06:23:47.235Z,16.33
2023-05-06T06:26:55.912Z,16.44
2023-05-06T06:30:11.288Z,16.61
2023-05-06T06:33:26.358Z,16.74
2023-05-06T06:36:35.011Z,16.92
2023-05-06T06:39:43.286Z,17.12
2023-05-06T06:42:58.278Z,17.28
2023-05-06T06:46:06.883Z,17.50
2023-05-06T06:49:21.351Z,17.63
2023-05-06T06:52:36.550Z,17.75
2023-05-06T06:55:52.269Z,17.88
2023-05-06T06:59:01.284Z,18.03
2023-05-06T07:02:16.258Z,18.29
2023-05-06T07:05:25.272Z,18.59
2023-05-06T07:08:40.306Z,18.68
2023-05-06T07:11:48.890Z,19.00
2023-05-06T07:14:57.276Z,19.33
2023-05-06T07:18:06.116Z,19.45
2023-05-06T07:21:21.271Z,19.75
2023-05-06T07:24:30.076Z,19.92
2023-05-06T07:27:45.253Z,20.27
2023-05-06T07:30:54.061Z,20.66
2023-05-06T07:34:02.265Z,20.89
2023-05-06T07:37:17.297Z,21.05
2023-05-06T07:40:19.234Z,21.29
2023-05-06T07:43:34.311Z,21.38
2023-05-06T07:46:42.444Z,21.65
2023-05-06T07:49:57.400Z,21.97
2023-05-06T07:53:12.540Z,22.04
2023-05-06T07:56:21.302Z,22.29
2023-05-06T07:59:36.295Z,22.61
2023-05-06T08:02:51.383Z,22.51
2023-05-06T08:06:06.303Z,22.79
2023-05-06T08:09:23.060Z,22.68
2023-05-06T08:12:32.471Z,22.92
2023-05-06T08:15:47.371Z,23.11
2023-05-06T08:19:02.293Z,22.96
2023-05-06T08:22:17.322Z,23.18
2023-05-06T08:25:32.297Z,23.20
2023-05-06T08:28:40.914Z,23.40
2023-05-06T08:31:50.339Z,23.47
2023-05-06T08:35:06.333Z,23.48
2023-05-06T08:38:21.305Z,23.36
2023-05-06T08:41:38.324Z,23.64
2023-05-06T08:44:47.617Z,23.92
2023-05-06T08:48:02.340Z,24.26
2023-05-06T08:51:26.056Z,23.97
2023-05-06T08:54:42.319Z,23.89
2023-05-06T08:57:51.292Z,24.03
2023-05-06T09:01:07.309Z,24.27
2023-05-06T09:04:17.658Z,24.40
2023-05-06T09:07:32.276Z,24.54
2023-05-06T09:10:46.897Z,24.42
2023-05-06T09:13:56.318Z,24.89
2023-05-06T09:17:05.058Z,24.75
2023-05-06T09:20:14.433Z,25.38
2023-05-06T09:23:29.522Z,25.31
2023-05-06T09:26:39.427Z,24.91
2023-05-06T09:30:14.327Z,24.31
2023-05-06T09:33:16.313Z,24.83
2023-05-06T09:36:34.335Z,24.85
2023-05-06T09:39:42.904Z,24.71
2023-05-06T09:42:51.341Z,25.39
2023-05-06T09:46:00.665Z,25.80
2023-05-06T09:49:15.329Z,26.16
2023-05-06T09:52:30.397Z,26.71
2023-05-06T09:55:33.325Z,25.79
2023-05-06T09:58:49.323Z,25.18
2023-05-06T10:02:05.376Z,24.78
2023-05-06T10:05:20.414Z,24.85
2023-05-06T10:08:36.419Z,25.87
2023-05-06T10:11:45.312Z,26.20
2023-05-06T10:14:53.979Z,25.82
2023-05-06T10:18:02.469Z,25.58
2023-05-06T10:21:16.644Z,24.95
2023-05-06T10:24:39.361Z,24.85
2023-05-06T10:27:48.371Z,25.45
2023-05-06T10:30:58.695Z,25.20
2023-05-06T10:34:14.339Z,24.82
2023-05-06T10:37:16.569Z,24.89
2023-05-06T10:40:38.338Z,24.91
2023-05-06T10:43:49.334Z,24.67
2023-05-06T10:47:00.098Z,24.53
2023-05-06T10:50:29.353Z,25.08
2023-05-06T10:54:13.348Z,25.66
2023-05-06T10:57:22.768Z,25.51
2023-05-06T11:00:31.336Z,25.36
2023-05-06T11:03:43.783Z,25.27
2023-05-06T11:07:00.345Z,25.38
2023-05-06T11:10:04.399Z,25.57
2023-05-06T11:13:28.487Z,25.56
2023-05-06T11:16:59.441Z,25.48
2023-05-06T11:20:37.378Z,25.31
2023-05-06T11:23:46.218Z,25.07
2023-05-06T11:27:03.484Z,25.02
2023-05-06T11:30:12.759Z,25.00
2023-05-06T11:33:31.344Z,24.63
2023-05-06T11:36:40.326Z,24.70
2023-05-06T11:39:56.374Z,24.75
2023-05-06T11:43:21.339Z,25.11
2023-05-06T11:46:33.404Z,25.61
2023-05-06T11:49:50.367Z,26.05
2023-05-06T11:53:05.686Z,25.80
2023-05-06T11:56:21.367Z,25.83
2023-05-06T11:59:41.361Z,25.57
2023-05-06T12:02:50.390Z,25.13
2023-05-06T12:05:59.764Z,25.28
2023-05-06T12:09:11.343Z,25.37
2023-05-06T12:12:28.376Z,25.28
2023-05-06T12:15:37.363Z,25.05
2023-05-06T12:18:46.108Z,24.85
2023-05-06T12:22:01.361Z,24.72
2023-05-06T12:25:20.381Z,24.60
2023-05-06T12:28:35.546Z,24.58
2023-05-06T12:31:37.756Z,24.31
2023-05-06T12:34:52.373Z,24.06
2023-05-06T12:38:15.795Z,24.28
2023-05-06T12:41:32.359Z,24.55
2023-05-06T12:44:45.370Z,24.31
2023-05-06T12:47:55.805Z,24.48
2023-05-06T12:51:04.400Z,24.55
2023-05-06T12:54:31.507Z,24.52
2023-05-06T12:57:40.384Z,24.46
2023-05-06T13:00:55.382Z,24.39
2023-05-06T13:04:10.390Z,24.08
2023-05-06T13:07:25.385Z,23.98
2023-05-06T13:10:33.981Z,23.96
2023-05-06T13:13:48.399Z,23.93
2023-05-06T13:16:58.411Z,24.04
2023-05-06T13:20:07.447Z,23.96
2023-05-06T13:23:16.241Z,23.89
2023-05-06T13:26:24.369Z,23.79
2023-05-06T13:29:39.383Z,23.81
2023-05-06T13:32:54.420Z,23.89
2023-05-06T13:36:09.412Z,23.96
2023-05-06T13:39:17.928Z,23.74
2023-05-06T13:42:26.405Z,23.67
2023-05-06T13:45:35.108Z,23.47
2023-05-06T13:48:43.425Z,23.50
2023-05-06T13:52:07.904Z,23.29
2023-05-06T13:55:19.166Z,23.21
2023-05-06T13:58:28.125Z,23.15
2023-05-06T14:01:43.522Z,22.78
2023-05-06T14:04:45.858Z,22.46
2023-05-06T14:08:00.463Z,22.20
2023-05-06T14:11:02.407Z,21.68
2023-05-06T14:14:17.480Z,21.58
2023-05-06T14:17:26.492Z,21.67
2023-05-06T14:20:34.962Z,21.70
2023-05-06T14:23:43.472Z,21.39
2023-05-06T14:26:52.903Z,21.10
2023-05-06T14:30:09.711Z,21.20
2023-05-06T14:33:24.430Z,21.25
2023-05-06T14:36:39.404Z,21.34
2023-05-06T14:39:47.441Z,21.05
2023-05-06T14:42:55.970Z,20.96
2023-05-06T14:46:04.455Z,21.02
2023-05-06T14:49:20.409Z,21.00
2023-05-06T14:52:43.430Z,20.81
2023-05-06T14:55:58.424Z,20.70
2023-05-06T14:59:01.923Z,20.83
2023-05-06T15:02:18.411Z,20.73
2023-05-06T15:05:27.466Z,20.72
2023-05-06T15:08:45.467Z,20.45
2023-05-06T15:12:00.513Z,20.52
2023-05-06T15:15:09.682Z,20.45
2023-05-06T15:18:24.389Z,20.30
2023-05-06T15:21:26.510Z,20.07
2023-05-06T15:24:42.403Z,20.03
2023-05-06T15:27:44.319Z,20.04
2023-05-06T15:30:59.443Z,20.10
2023-05-06T15:34:01.308Z,20.15
2023-05-06T15:37:16.427Z,20.18
2023-05-06T15:40:26.527Z,20.16
2023-05-06T15:43:37.969Z,20.17
2023-05-06T15:46:47.037Z,20.18
2023-05-06T15:50:14.040Z,20.19
2023-05-06T15:53:35.415Z,20.25
2023-05-06T15:56:51.424Z,20.22
2023-05-06T15:59:53.338Z,20.18
2023-05-06T16:03:11.595Z,20.21
2023-05-06T16:06:20.940Z,20.20
2023-05-06T16:09:29.433Z,20.27
2023-05-06T16:12:44.635Z,20.38
2023-05-06T16:15:53.374Z,20.42
2023-05-06T16:19:04.548Z,20.51
2023-05-06T16:22:19.423Z,20.82
2023-05-06T16:25:34.647Z,20.72
2023-05-06T16:28:38.130Z,20.66
2023-05-06T16:31:55.545Z,20.77
2023-05-06T16:35:04.429Z,20.70
2023-05-06T16:38:12.981Z,20.61
2023-05-06T16:41:27.439Z,20.51
2023-05-06T16:44:35.456Z,20.48
2023-05-06T16:47:50.507Z,20.44
2023-05-06T16:51:05.461Z,20.39
2023-05-06T16:54:27.431Z,20.35
2023-05-06T16:57:35.444Z,20.33
2023-05-06T17:00:50.469Z,20.31
2023-05-06T17:03:59.012Z,20.30
2023-05-06T17:07:13.446Z,20.24
2023-05-06T17:10:21.437Z,20.24
2023-05-06T17:13:36.447Z,20.20
2023-05-06T17:16:51.676Z,20.15
2023-05-06T17:20:06.460Z,20.09
2023-05-06T17:23:21.915Z,20.07
2023-05-06T17:26:34.508Z,20.01
2023-05-06T17:29:49.486Z,19.99
2023-05-06T17:32:58.228Z,19.93
2023-05-06T17:36:13.443Z,19.91
2023-05-06T17:39:22.193Z,19.87
2023-05-06T17:42:37.614Z,19.82
2023-05-06T17:45:52.487Z,19.83
2023-05-06T17:48:54.385Z,19.80
2023-05-06T17:52:10.425Z,19.76
2023-05-06T17:55:25.538Z,19.76
2023-05-06T17:58:40.457Z,19.65
2023-05-06T18:01:48.489Z,19.64
2023-05-06T18:04:57.188Z,19.57
2023-05-06T18:08:05.431Z,19.50
2023-05-06T18:11:20.433Z,19.47
2023-05-06T18:14:22.364Z,19.43
2023-05-06T18:17:37.489Z,19.37
2023-05-06T18:20:52.461Z,19.35
2023-05-06T18:24:01.959Z,19.32
2023-05-06T18:27:25.442Z,19.27
2023-05-06T18:30:27.296Z,19.25
2023-05-06T18:33:42.433Z,19.25
2023-05-06T18:36:51.230Z,19.27
2023-05-06T18:39:59.462Z,19.37
2023-05-06T18:43:08.289Z,19.48
2023-05-06T18:46:23.620Z,19.56
2023-05-06T18:49:32.319Z,19.58
2023-05-06T18:52:54.435Z,19.55
2023-05-06T18:55:56.282Z,19.43
2023-05-06T18:59:11.438Z,19.14
2023-05-06T19:02:13.388Z,19.07
2023-05-06T19:05:28.445Z,18.90
2023-05-06T19:08:44.455Z,18.75
2023-05-06T19:11:46.389Z,18.62
2023-05-06T19:15:01.468Z,18.51
2023-05-06T19:18:10.486Z,18.47
2023-05-06T19:21:25.470Z,18.41
2023-05-06T19:24:34.083Z,18.41
2023-05-06T19:27:42.533Z,18.50
2023-05-06T19:30:51.169Z,18.54
2023-05-06T19:34:00.557Z,18.44
2023-05-06T19:37:15.471Z,18.43
2023-05-06T19:40:30.478Z,18.41
2023-05-06T19:43:50.468Z,18.39
2023-05-06T19:46:59.171Z,18.42
2023-05-06T19:50:15.508Z,18.42
2023-05-06T19:53:30.647Z,18.44
2023-05-06T19:56:39.000Z,18.48
2023-05-06T19:59:53.474Z,18.48
2023-05-06T20:02:57.821Z,18.49
2023-05-06T20:06:13.491Z,18.52
2023-05-06T20:09:22.061Z,18.51
2023-05-06T20:12:31.492Z,18.54
2023-05-06T20:15:40.278Z,18.55
2023-05-06T20:18:55.538Z,18.47
2023-05-06T20:22:04.492Z,18.53
2023-05-06T20:25:23.487Z,18.51
2023-05-06T20:28:31.742Z,18.50
2023-05-06T20:31:46.507Z,18.44
2023-05-06T20:34:48.412Z,18.41
2023-05-06T20:38:03.505Z,18.28
2023-05-06T20:41:12.489Z,18.20
2023-05-06T20:44:27.496Z,18.18
2023-05-06T20:47:42.560Z,18.16
2023-05-06T20:50:58.485Z,18.15
2023-05-06T20:54:13.730Z,18.13
2023-05-06T20:57:28.479Z,18.06
2023-05-06T21:00:37.179Z,17.97
2023-05-06T21:03:52.621Z,17.93
2023-05-06T21:06:54.549Z,17.86
2023-05-06T21:10:10.461Z,17.90
2023-05-06T21:13:19.493Z,18.01
2023-05-06T21:16:34.469Z,18.06
2023-05-06T21:19:43.494Z,18.12
2023-05-06T21:22:52.363Z,18.14
2023-05-06T21:26:00.479Z,18.14
2023-05-06T21:29:16.499Z,18.14
2023-05-06T21:32:19.227Z,18.04
2023-05-06T21:35:37.509Z,18.04
2023-05-06T21:38:54.521Z,17.96
2023-05-06T21:41:56.498Z,17.87
2023-05-06T21:45:12.651Z,17.79
2023-05-06T21:48:14.604Z,17.76
2023-05-06T21:51:29.500Z,17.71
2023-05-06T21:54:47.487Z,17.65
2023-05-06T21:57:55.515Z,17.53
2023-05-06T22:01:10.462Z,17.51
2023-05-06T22:04:25.481Z,17.39
2023-05-06T22:07:33.477Z,17.32
2023-05-06T22:10:42.091Z,17.28
2023-05-06T22:13:56.498Z,17.22
2023-05-06T22:17:06.219Z,17.20
2023-05-06T22:20:15.560Z,17.21
2023-05-06T22:23:24.913Z,17.26
2023-05-06T22:26:39.496Z,17.27
2023-05-06T22:29:41.508Z,17.27
2023-05-06T22:32:56.554Z,17.33
2023-05-06T22:35:58.460Z,17.37
2023-05-06T22:39:14.502Z,17.34
2023-05-06T22:42:24.605Z,17.35
2023-05-06T22:45:33.508Z,17.20
2023-05-06T22:48:42.138Z,17.31
2023-05-06T22:51:56.485Z,17.26
2023-05-06T22:55:13.639Z,17.20
2023-05-06T22:58:28.492Z,17.17
2023-05-06T23:01:43.652Z,17.09
2023-05-06T23:04:52.494Z,17.10
2023-05-06T23:08:01.072Z,17.03
2023-05-06T23:11:15.517Z,16.98
2023-05-06T23:14:30.525Z,16.95
2023-05-06T23:17:32.568Z,16.95
2023-05-06T23:20:47.508Z,16.89
2023-05-06T23:23:55.502Z,16.85
2023-05-06T23:27:04.178Z,16.84
2023-05-06T23:30:13.499Z,16.82
2023-05-06T23:33:22.027Z,16.75
2023-05-06T23:36:30.509Z,16.72
2023-05-06T23:39:39.290Z,16.59
2023-05-06T23:42:54.502Z,16.53
2023-05-06T23:45:56.403Z,16.53
2023-05-06T23:49:11.513Z,16.48
2023-05-06T23:52:13.470Z,16.47
2023-05-06T23:55:36.542Z,16.44
2023-05-06T23:58:38.386Z,16.39
